createdAt,value
2023-11-30T00:01:27.150Z,67.99
2023-11-30T00:03:54.936Z,67.62
2023-11-30T00:06:21.918Z,67.09
2023-11-30T00:08:52.236Z,66.97
2023-11-30T00:11:20.581Z,66.95
2023-11-30T00:13:56.798Z,66.97
2023-11-30T00:16:26.006Z,65.79
2023-11-30T00:18:57.944Z,65.55
2023-11-30T00:21:24.880Z,65.25
2023-11-30T00:23:52.043Z,64.94
2023-11-30T00:26:18.918Z,64.33
2023-11-30T00:28:45.806Z,64.61
2023-11-30T00:31:12.873Z,64.36
2023-11-30T00:33:41.441Z,64.78
2023-11-30T00:36:09.879Z,64.46
2023-11-30T00:38:36.883Z,65.07
2023-11-30T00:41:04.997Z,65.11
2023-11-30T00:43:37.115Z,65.29
2023-11-30T00:46:09.889Z,65.05
2023-11-30T00:48:38.551Z,64.66
2023-11-30T00:51:12.632Z,64.52
2023-11-30T00:53:43.788Z,64.29
2023-11-30T00:56:15.645Z,64.35
2023-11-30T00:58:42.618Z,64.78
2023-11-30T01:01:09.815Z,64.75
2023-11-30T01:03:36.788Z,64.84
2023-11-30T01:06:03.878Z,64.88
2023-11-30T01:08:30.787Z,64.89
2023-11-30T01:10:57.937Z,64.77
2023-11-30T01:13:26.151Z,65.05
2023-11-30T01:15:53.093Z,65.26
2023-11-30T01:18:20.271Z,65.61
2023-11-30T01:20:47.304Z,66.16
2023-11-30T01:23:14.623Z,66.14
2023-11-30T01:25:41.723Z,65.75
2023-11-30T01:28:11.427Z,65.68
2023-11-30T01:30:47.518Z,65.52
2023-11-30T01:33:14.621Z,65.30
2023-11-30T01:35:48.285Z,65.59
2023-11-30T01:38:21.475Z,65.23
2023-11-30T01:40:51.368Z,65.34
2023-11-30T01:43:33.485Z,65.20
2023-11-30T01:46:03.785Z,65.12
2023-11-30T01:48:33.920Z,65.11
2023-11-30T01:51:07.178Z,65.44
2023-11-30T01:53:37.098Z,65.12
2023-11-30T01:56:14.182Z,65.33
2023-11-30T01:58:41.795Z,65.48
2023-11-30T02:01:16.195Z,65.27
2023-11-30T02:03:43.213Z,66.02
2023-11-30T02:06:10.411Z,66.03
2023-11-30T02:08:37.430Z,66.23
2023-11-30T02:11:04.428Z,67.09
2023-11-30T02:13:31.362Z,66.44
2023-11-30T02:16:01.372Z,66.14
2023-11-30T02:18:28.497Z,66.46
2023-11-30T02:20:56.974Z,66.39
2023-11-30T02:23:23.882Z,66.51
2023-11-30T02:25:50.757Z,67.49
2023-11-30T02:28:18.615Z,67.11
2023-11-30T02:30:47.924Z,67.56
2023-11-30T02:33:16.179Z,67.19
2023-11-30T02:35:43.257Z,67.96
2023-11-30T02:38:10.893Z,67.70
2023-11-30T02:40:38.874Z,67.85
2023-11-30T02:43:05.991Z,67.63
2023-11-30T02:45:33.164Z,68.37
2023-11-30T02:48:01.029Z,68.35
2023-11-30T02:50:32.240Z,68.41
2023-11-30T02:52:59.284Z,68.71
2023-11-30T02:55:26.402Z,69.36
2023-11-30T02:57:53.432Z,69.80
2023-11-30T03:00:20.514Z,71.12
2023-11-30T03:02:47.623Z,69.46
2023-11-30T03:05:33.899Z,69.79
2023-11-30T03:08:02.865Z,70.75
2023-11-30T03:10:29.811Z,70.80
2023-11-30T03:12:56.758Z,70.46
2023-11-30T03:15:24.527Z,70.90
2023-11-30T03:17:54.893Z,70.48
2023-11-30T03:20:25.550Z,70.67
2023-11-30T03:22:52.551Z,71.01
2023-11-30T03:25:19.533Z,71.04
2023-11-30T03:27:46.732Z,71.55
2023-11-30T03:30:13.989Z,71.20
2023-11-30T03:32:41.025Z,71.80
2023-11-30T03:35:08.058Z,71.88
2023-11-30T03:37:35.195Z,71.57
2023-11-30T03:40:02.135Z,72.76
2023-11-30T03:42:29.093Z,72.58
2023-11-30T03:44:56.556Z,72.27
2023-11-30T03:47:25.786Z,71.06
2023-11-30T03:50:00.348Z,71.47
2023-11-30T03:52:27.539Z,70.44
2023-11-30T03:54:57.365Z,70.89
2023-11-30T03:57:25.318Z,71.09
2023-11-30T03:59:53.627Z,71.88
2023-11-30T04:02:28.162Z,71.48
2023-11-30T04:04:55.414Z,70.61
2023-11-30T04:07:23.524Z,71.04
2023-11-30T04:09:53.529Z,72.65
2023-11-30T04:12:23.297Z,72.55
2023-11-30T04:14:51.579Z,72.65
2023-11-30T04:17:18.774Z,72.54
2023-11-30T04:19:46.351Z,72.86
2023-11-30T04:22:15.290Z,73.26
2023-11-30T04:24:42.472Z,74.80
2023-11-30T04:27:09.674Z,73.96
2023-11-30T04:29:36.750Z,73.41
2023-11-30T04:32:05.937Z,73.08
2023-11-30T04:34:35.378Z,73.12
2023-11-30T04:37:02.414Z,73.30
2023-11-30T04:39:31.842Z,73.41
2023-11-30T04:42:01.684Z,73.98
2023-11-30T04:44:32.311Z,74.40
2023-11-30T04:47:00.021Z,74.50
2023-11-30T04:49:27.123Z,74.19
2023-11-30T04:51:54.297Z,74.74
2023-11-30T04:54:22.758Z,74.52
2023-11-30T04:56:50.405Z,74.48
2023-11-30T04:59:17.547Z,74.25
2023-11-30T05:01:44.793Z,74.38
2023-11-30T05:04:11.974Z,75.58
2023-11-30T05:06:42.192Z,75.87
2023-11-30T05:09:12.656Z,75.78
2023-11-30T05:11:39.852Z,75.72
2023-11-30T05:14:06.725Z,75.80
2023-11-30T05:16:33.793Z,76.10
2023-11-30T05:19:09.383Z,76.49
2023-11-30T05:21:36.549Z,76.26
2023-11-30T05:24:03.750Z,75.84
2023-11-30T05:26:30.825Z,76.55
2023-11-30T05:28:58.086Z,76.39
2023-11-30T05:31:34.836Z,76.93
2023-11-30T05:34:03.783Z,77.05
2023-11-30T05:36:30.997Z,77.44
2023-11-30T05:38:58.259Z,77.33
2023-11-30T05:41:25.755Z,77.21
2023-11-30T05:43:52.642Z,77.17
2023-11-30T05:46:26.012Z,78.14
2023-11-30T05:48:56.501Z,78.15
2023-11-30T05:51:23.508Z,78.89
2023-11-30T05:53:50.563Z,79.25
2023-11-30T05:56:17.722Z,79.46
2023-11-30T05:58:45.109Z,79.39
2023-11-30T06:01:12.876Z,79.84
2023-11-30T06:03:40.302Z,79.75
2023-11-30T06:06:12.070Z,79.87
2023-11-30T06:08:39.059Z,79.87
2023-11-30T06:11:06.427Z,79.48
2023-11-30T06:13:34.303Z,79.19
2023-11-30T06:16:04.400Z,80.19
2023-11-30T06:18:31.380Z,80.12
2023-11-30T06:20:59.447Z,80.46
2023-11-30T06:23:27.915Z,80.09
2023-11-30T06:25:56.790Z,80.71
2023-11-30T06:28:23.658Z,80.62
2023-11-30T06:30:50.547Z,81.57
2023-11-30T06:33:17.730Z,81.24
2023-11-30T06:35:44.810Z,81.70
2023-11-30T06:38:12.023Z,81.68
2023-11-30T06:40:39.997Z,82.08
2023-11-30T06:43:08.938Z,82.09
2023-11-30T06:45:35.869Z,82.19
2023-11-30T06:48:02.868Z,81.97
2023-11-30T06:50:29.938Z,81.65
2023-11-30T06:52:56.856Z,81.95
2023-11-30T06:55:23.879Z,82.49
2023-11-30T06:57:53.797Z,82.63
2023-11-30T07:00:23.208Z,81.97
2023-11-30T07:02:50.502Z,82.24
2023-11-30T07:05:20.210Z,82.30
2023-11-30T07:07:50.272Z,83.03
2023-11-30T07:10:17.395Z,82.90
2023-11-30T07:12:44.596Z,82.93
2023-11-30T07:15:11.714Z,82.27
2023-11-30T07:17:39.058Z,81.85
2023-11-30T07:20:08.493Z,82.16
2023-11-30T07:22:36.185Z,82.64
2023-11-30T07:25:05.663Z,82.96
2023-11-30T07:27:36.592Z,82.68
2023-11-30T07:30:09.461Z,82.34
2023-11-30T07:32:36.665Z,82.14
2023-11-30T07:35:08.500Z,81.68
2023-11-30T07:37:36.212Z,80.88
2023-11-30T07:40:08.454Z,80.69
2023-11-30T07:42:37.754Z,80.74
2023-11-30T07:45:07.324Z,81.39
2023-11-30T07:47:34.652Z,81.81
2023-11-30T07:50:02.031Z,81.58
2023-11-30T07:52:29.130Z,81.31
2023-11-30T07:54:56.518Z,81.28
2023-11-30T07:57:23.674Z,81.27
2023-11-30T07:59:56.251Z,81.15
2023-11-30T08:02:23.489Z,81.22
2023-11-30T08:04:50.651Z,81.31
2023-11-30T08:07:19.240Z,81.04
2023-11-30T08:09:46.336Z,81.60
2023-11-30T08:12:14.069Z,81.13
2023-11-30T08:14:41.648Z,82.14
2023-11-30T08:17:08.802Z,82.09
2023-11-30T08:19:35.864Z,80.99
2023-11-30T08:22:02.965Z,80.35
2023-11-30T08:24:33.770Z,81.04
2023-11-30T08:27:01.573Z,80.55
2023-11-30T08:29:28.837Z,80.99
2023-11-30T08:31:56.084Z,82.01
2023-11-30T08:34:23.162Z,83.03
2023-11-30T08:36:53.592Z,83.14
2023-11-30T08:39:25.558Z,83.02
2023-11-30T08:41:52.758Z,81.82
2023-11-30T08:44:19.958Z,82.15
2023-11-30T08:46:47.247Z,81.73
2023-11-30T08:49:17.440Z,81.77
2023-11-30T08:51:45.923Z,81.14
2023-11-30T08:54:13.461Z,81.88
2023-11-30T08:56:40.551Z,82.28
2023-11-30T08:59:07.721Z,82.50
2023-11-30T09:01:35.368Z,82.25
2023-11-30T09:04:06.670Z,82.67
2023-11-30T09:06:39.845Z,82.79
2023-11-30T09:09:08.188Z,82.87
2023-11-30T09:11:37.534Z,82.80
2023-11-30T09:14:04.605Z,83.01
2023-11-30T09:16:31.593Z,83.47
2023-11-30T09:18:58.509Z,83.53
2023-11-30T09:21:27.155Z,83.97
2023-11-30T09:23:58.718Z,83.68
2023-11-30T09:26:29.296Z,83.48
2023-11-30T09:28:56.385Z,83.58
2023-11-30T09:31:23.393Z,83.80
2023-11-30T09:33:52.843Z,83.99
2023-11-30T09:36:19.863Z,83.03
2023-11-30T09:38:47.057Z,82.68
2023-11-30T09:44:00.142Z,82.86
2023-11-30T09:46:30.014Z,82.63
2023-11-30T09:48:59.461Z,82.59
2023-11-30T09:51:33.352Z,82.64
2023-11-30T09:54:00.894Z,82.26
2023-11-30T09:56:29.318Z,82.46
2023-11-30T09:58:57.275Z,82.85
2023-11-30T10:01:24.504Z,82.91
2023-11-30T10:03:53.233Z,83.70
2023-11-30T10:06:20.692Z,83.71
2023-11-30T10:08:47.983Z,83.70
2023-11-30T10:11:14.905Z,82.99
2023-11-30T10:13:42.015Z,83.03
2023-11-30T10:16:12.439Z,82.76
2023-11-30T10:18:39.658Z,82.17
2023-11-30T10:21:09.053Z,82.10
2023-11-30T10:23:36.560Z,81.93
2023-11-30T10:26:03.942Z,81.98
2023-11-30T10:28:31.580Z,82.55
2023-11-30T10:31:00.767Z,83.13
2023-11-30T10:33:29.761Z,84.09
2023-11-30T10:36:02.384Z,83.37
2023-11-30T10:38:32.976Z,82.90
2023-11-30T10:41:18.770Z,83.33
2023-11-30T10:43:50.095Z,83.11
2023-11-30T10:46:17.821Z,82.79
2023-11-30T10:48:45.269Z,82.88
2023-11-30T10:51:13.482Z,82.79
2023-11-30T10:54:06.148Z,82.58
2023-11-30T10:56:34.422Z,83.58
2023-11-30T10:59:01.466Z,83.94
2023-11-30T11:01:28.789Z,83.92
2023-11-30T11:03:58.733Z,84.39
2023-11-30T11:06:40.298Z,84.04
2023-11-30T11:09:09.035Z,84.38
2023-11-30T11:11:41.373Z,84.55
2023-11-30T11:14:08.718Z,84.08
2023-11-30T11:16:46.146Z,83.39
2023-11-30T11:19:15.554Z,83.61
2023-11-30T11:21:43.418Z,83.35
2023-11-30T11:24:10.692Z,83.52
2023-11-30T11:27:00.882Z,83.96
2023-11-30T11:29:38.610Z,82.84
2023-11-30T11:32:13.499Z,82.09
2023-11-30T11:34:40.473Z,82.74
2023-11-30T11:37:10.119Z,83.22
2023-11-30T11:39:38.167Z,84.09
2023-11-30T11:42:08.261Z,84.03
2023-11-30T11:44:35.608Z,83.57
2023-11-30T11:47:02.643Z,82.88
2023-11-30T11:49:37.636Z,83.45
2023-11-30T11:52:05.025Z,83.79
2023-11-30T11:54:32.096Z,83.71
2023-11-30T11:56:59.320Z,84.09
2023-11-30T11:59:27.945Z,84.01
2023-11-30T12:01:59.357Z,83.14
2023-11-30T12:04:38.220Z,82.15
2023-11-30T12:07:16.852Z,82.63
2023-11-30T12:09:55.532Z,82.41
2023-11-30T12:12:33.546Z,82.26
2023-11-30T12:15:00.971Z,82.59
2023-11-30T12:17:27.960Z,82.96
2023-11-30T12:19:57.580Z,83.43
2023-11-30T12:22:25.052Z,83.58
2023-11-30T12:24:52.529Z,83.30
2023-11-30T12:27:19.746Z,83.58
2023-11-30T12:29:47.042Z,83.26
2023-11-30T12:32:14.529Z,83.48
2023-11-30T12:34:41.595Z,83.89
2023-11-30T12:37:10.999Z,83.75
2023-11-30T12:39:41.781Z,84.52
2023-11-30T12:42:09.220Z,84.74
2023-11-30T12:44:39.045Z,84.50
2023-11-30T12:47:06.229Z,83.99
2023-11-30T12:49:35.152Z,84.33
2023-11-30T12:52:03.441Z,84.82
2023-11-30T12:54:30.761Z,85.94
2023-11-30T12:57:00.853Z,85.73
2023-11-30T12:59:28.401Z,84.71
2023-11-30T13:01:56.409Z,83.95
2023-11-30T13:04:24.274Z,83.19
2023-11-30T13:06:51.904Z,83.48
2023-11-30T13:09:19.271Z,84.74
2023-11-30T13:11:49.307Z,84.54
2023-11-30T13:14:17.062Z,84.27
2023-11-30T13:16:44.464Z,84.89
2023-11-30T13:19:16.620Z,85.00
2023-11-30T13:21:43.844Z,84.74
2023-11-30T13:24:18.993Z,84.73
2023-11-30T13:26:48.323Z,84.64
2023-11-30T13:29:18.742Z,85.08
2023-11-30T13:31:46.086Z,84.66
2023-11-30T13:34:13.505Z,85.07
2023-11-30T13:36:41.002Z,85.70
2023-11-30T13:39:08.167Z,85.99
2023-11-30T13:41:35.209Z,86.25
2023-11-30T13:44:06.498Z,85.82
2023-11-30T13:46:33.877Z,84.97
2023-11-30T13:49:00.950Z,85.02
2023-11-30T13:51:28.018Z,85.51
2023-11-30T13:53:55.511Z,86.10
2023-11-30T13:56:23.081Z,86.11
2023-11-30T13:58:51.001Z,86.09
2023-11-30T14:01:18.637Z,86.36
2023-11-30T14:03:45.825Z,85.88
2023-11-30T14:06:14.081Z,85.65
2023-11-30T14:08:41.531Z,85.48
2023-11-30T14:11:18.508Z,85.60
2023-11-30T14:13:46.482Z,85.89
2023-11-30T14:16:16.044Z,86.56
2023-11-30T14:18:43.374Z,86.56
2023-11-30T14:21:10.515Z,86.89
2023-11-30T14:23:41.558Z,87.37
2023-11-30T14:26:08.552Z,87.68
2023-11-30T14:28:35.536Z,87.33
2023-11-30T14:31:03.000Z,87.15
2023-11-30T14:33:33.245Z,87.12
2023-11-30T14:36:00.526Z,87.21
2023-11-30T14:38:27.581Z,87.35
2023-11-30T14:40:54.558Z,86.52
2023-11-30T14:43:29.136Z,86.34
2023-11-30T14:45:56.274Z,86.52
2023-11-30T14:48:25.299Z,86.60
2023-11-30T14:50:53.081Z,86.68
2023-11-30T14:53:20.229Z,86.52
2023-11-30T14:55:47.272Z,87.11
2023-11-30T14:58:16.717Z,87.44
2023-11-30T15:00:43.749Z,87.15
2023-11-30T15:03:12.568Z,86.43
2023-11-30T15:05:40.244Z,86.50
2023-11-30T15:08:07.904Z,85.96
2023-11-30T15:10:34.830Z,85.31
2023-11-30T15:13:01.903Z,85.89
2023-11-30T15:15:28.996Z,86.19
2023-11-30T15:17:56.254Z,85.83
2023-11-30T15:20:24.376Z,86.53
2023-11-30T15:22:51.695Z,86.22
2023-11-30T15:25:22.293Z,86.00
2023-11-30T15:27:50.727Z,86.28
2023-11-30T15:30:18.710Z,86.01
2023-11-30T15:32:46.023Z,85.78
2023-11-30T15:35:13.282Z,85.86
2023-11-30T15:37:40.342Z,85.81
2023-11-30T15:40:13.941Z,86.15
2023-11-30T15:42:41.012Z,86.17
2023-11-30T15:45:12.841Z,86.08
2023-11-30T15:47:41.236Z,86.75
2023-11-30T15:50:08.984Z,86.97
2023-11-30T15:52:36.183Z,87.43
2023-11-30T15:55:03.532Z,87.82
2023-11-30T15:57:30.606Z,87.85
2023-11-30T15:59:57.800Z,88.22
2023-11-30T16:02:24.851Z,88.39
2023-11-30T16:04:52.496Z,88.72
2023-11-30T16:07:19.587Z,88.39
2023-11-30T16:09:49.457Z,88.52
2023-11-30T16:12:19.204Z,88.18
2023-11-30T16:14:46.582Z,89.11
2023-11-30T16:17:13.989Z,89.61
2023-11-30T16:19:41.102Z,89.79
2023-11-30T16:22:11.576Z,89.21
2023-11-30T16:24:38.713Z,89.47
2023-11-30T16:27:06.549Z,89.99
2023-11-30T16:29:34.267Z,89.71
2023-11-30T16:32:01.462Z,89.66
2023-11-30T16:34:32.502Z,89.58
2023-11-30T16:37:00.061Z,88.81
2023-11-30T16:39:28.842Z,88.23
2023-11-30T16:41:57.411Z,88.58
2023-11-30T16:44:24.800Z,89.58
2023-11-30T16:46:51.958Z,89.19
2023-11-30T16:49:19.134Z,88.93
2023-11-30T16:51:49.393Z,89.00
2023-11-30T16:54:24.110Z,88.93
2023-11-30T16:56:54.314Z,88.62
2023-11-30T16:59:25.420Z,88.05
2023-11-30T17:01:53.215Z,88.31
2023-11-30T17:04:20.505Z,88.66
2023-11-30T17:06:49.751Z,88.29
2023-11-30T17:09:16.820Z,88.00
2023-11-30T17:11:47.354Z,87.73
2023-11-30T17:14:17.534Z,87.25
2023-11-30T17:16:45.774Z,87.64
2023-11-30T17:19:15.666Z,88.20
2023-11-30T17:21:45.844Z,88.41
2023-11-30T17:24:14.319Z,88.69
2023-11-30T17:26:41.340Z,88.49
2023-11-30T17:29:08.700Z,89.07
2023-11-30T17:31:36.408Z,89.56
2023-11-30T17:34:03.891Z,89.81
2023-11-30T17:36:31.523Z,89.46
2023-11-30T17:39:00.584Z,89.75
2023-11-30T17:41:27.973Z,89.63
2023-11-30T17:43:56.362Z,89.39
2023-11-30T17:46:23.590Z,89.30
2023-11-30T17:48:51.339Z,89.28
2023-11-30T17:51:19.616Z,89.26
2023-11-30T17:53:47.903Z,89.05
2023-11-30T17:56:19.808Z,89.30
2023-11-30T17:58:46.976Z,90.01
2023-11-30T18:01:17.501Z,89.70
2023-11-30T18:03:44.714Z,89.21
2023-11-30T18:06:13.389Z,88.97
2023-11-30T18:08:41.493Z,88.43
2023-11-30T18:11:12.038Z,88.20
2023-11-30T18:13:46.976Z,88.04
2023-11-30T18:16:14.557Z,88.68
2023-11-30T18:18:41.569Z,88.95
2023-11-30T18:21:09.026Z,88.93
2023-11-30T18:23:37.358Z,89.02
2023-11-30T18:26:05.568Z,89.40
2023-11-30T18:28:42.294Z,89.76
2023-11-30T18:31:16.766Z,89.88
2023-11-30T18:33:52.294Z,90.00
2023-11-30T18:36:19.866Z,90.42
2023-11-30T18:38:51.011Z,90.06
2023-11-30T18:41:24.092Z,90.00
2023-11-30T18:43:51.451Z,90.69
2023-11-30T18:46:19.325Z,91.01
2023-11-30T18:48:47.124Z,90.53
2023-11-30T18:51:14.729Z,90.40
2023-11-30T18:53:42.641Z,90.86
2023-11-30T18:56:10.511Z,90.74
2023-11-30T18:58:37.995Z,90.74
2023-11-30T19:01:05.732Z,90.08
2023-11-30T19:03:33.106Z,89.66
2023-11-30T19:06:00.275Z,89.16
2023-11-30T19:08:30.742Z,89.68
2023-11-30T19:10:58.891Z,90.35
2023-11-30T19:13:26.033Z,90.71
2023-11-30T19:15:53.219Z,90.24
2023-11-30T19:18:21.692Z,89.96
2023-11-30T19:20:48.679Z,89.18
2023-11-30T19:23:16.089Z,89.50
2023-11-30T19:25:44.847Z,88.95
2023-11-30T19:28:24.346Z,88.48
2023-11-30T19:30:54.606Z,88.34
2023-11-30T19:33:22.220Z,88.60
2023-11-30T19:35:49.494Z,88.44
2023-11-30T19:38:19.822Z,88.12
2023-11-30T19:40:59.462Z,88.51
2023-11-30T19:43:30.698Z,88.31
2023-11-30T19:46:03.283Z,88.13
2023-11-30T19:48:32.412Z,88.10
2023-11-30T19:50:59.519Z,87.85
2023-11-30T19:53:30.613Z,87.73
2023-11-30T19:56:02.180Z,88.19
2023-11-30T19:58:36.580Z,88.15
2023-11-30T20:01:05.487Z,88.20
2023-11-30T20:03:32.764Z,89.03
2023-11-30T20:05:59.851Z,88.67
2023-11-30T20:08:27.014Z,88.01
2023-11-30T20:10:55.180Z,88.31
2023-11-30T20:13:22.589Z,88.06
2023-11-30T20:15:49.543Z,87.52
2023-11-30T20:18:18.673Z,87.32
2023-11-30T20:20:45.928Z,86.99
2023-11-30T20:23:21.992Z,86.74
2023-11-30T20:26:11.411Z,86.29
2023-11-30T20:28:47.360Z,86.70
2023-11-30T20:31:15.941Z,87.91
2023-11-30T20:33:43.324Z,87.61
2023-11-30T20:36:10.569Z,87.13
2023-11-30T20:38:40.639Z,87.12
2023-11-30T20:41:17.998Z,87.97
2023-11-30T20:43:45.463Z,88.64
2023-11-30T20:46:19.372Z,88.86
2023-11-30T20:48:47.852Z,88.52
2023-11-30T20:51:20.022Z,88.55
2023-11-30T20:53:49.360Z,87.34
2023-11-30T20:56:16.282Z,86.43
2023-11-30T20:58:48.291Z,86.22
2023-11-30T21:01:18.490Z,86.21
2023-11-30T21:03:46.826Z,85.99
2023-11-30T21:06:18.380Z,86.05
2023-11-30T21:08:48.826Z,86.42
2023-11-30T21:11:16.073Z,86.09
2023-11-30T21:13:45.292Z,85.46
2023-11-30T21:16:17.667Z,85.05
2023-11-30T21:18:49.416Z,84.47
2023-11-30T21:21:17.922Z,84.61
2023-11-30T21:23:51.510Z,85.14
2023-11-30T21:26:18.948Z,85.63
2023-11-30T21:28:47.065Z,85.78
2023-11-30T21:31:19.066Z,85.53
2023-11-30T21:33:48.827Z,85.21
2023-11-30T21:36:17.122Z,84.83
2023-11-30T21:38:45.917Z,85.15
2023-11-30T21:41:17.067Z,85.57
2023-11-30T21:43:52.235Z,85.98
2023-11-30T21:46:24.488Z,86.77
2023-11-30T21:48:53.216Z,87.14
2023-11-30T21:51:30.333Z,86.82
2023-11-30T21:53:57.470Z,87.36
2023-11-30T21:56:24.573Z,87.59
2023-11-30T21:58:52.252Z,87.45
2023-11-30T22:01:19.891Z,87.49
2023-11-30T22:03:47.069Z,86.93
2023-11-30T22:06:14.504Z,86.53
2023-11-30T22:08:41.484Z,86.31
2023-11-30T22:11:08.686Z,86.49
2023-11-30T22:13:36.884Z,86.44
2023-11-30T22:16:11.479Z,86.31
2023-11-30T22:18:40.249Z,86.37
2023-11-30T22:21:07.922Z,86.38
2023-11-30T22:23:40.643Z,86.56
2023-11-30T22:26:09.835Z,86.95
2023-11-30T22:28:37.614Z,86.88
2023-11-30T22:31:06.140Z,86.79
2023-11-30T22:33:35.158Z,86.41
2023-11-30T22:36:02.254Z,85.93
2023-11-30T22:38:32.875Z,86.16
2023-11-30T22:41:03.857Z,84.92
2023-11-30T22:43:34.257Z,85.17
2023-11-30T22:46:01.614Z,84.67
2023-11-30T22:48:33.898Z,84.52
2023-11-30T22:51:01.086Z,83.99
2023-11-30T22:53:28.127Z,83.94
2023-11-30T22:55:55.940Z,84.73
2023-11-30T22:58:23.664Z,84.32
2023-11-30T23:00:53.377Z,84.03
2023-11-30T23:03:34.021Z,84.64
2023-11-30T23:06:02.471Z,84.80
2023-11-30T23:08:29.865Z,84.47
2023-11-30T23:10:57.260Z,84.17
2023-11-30T23:13:24.566Z,83.78
2023-11-30T23:15:51.818Z,83.85
2023-11-30T23:18:22.277Z,84.12
2023-11-30T23:20:51.217Z,84.36
2023-11-30T23:23:25.838Z,84.37
2023-11-30T23:25:53.547Z,84.53
2023-11-30T23:28:23.471Z,84.61
2023-11-30T23:30:51.164Z,84.93
2023-11-30T23:33:18.260Z,85.05
2023-11-30T23:35:47.463Z,84.99
2023-11-30T23:38:15.696Z,84.81
2023-11-30T23:40:45.092Z,84.47
2023-11-30T23:43:12.638Z,84.43
2023-11-30T23:45:39.947Z,84.48
2023-11-30T23:48:07.246Z,84.71
2023-11-30T23:50:36.172Z,84.83
2023-11-30T23:53:03.301Z,85.24
2023-11-30T23:55:30.372Z,85.12
2023-11-30T23:57:57.972Z,85.48
